sensor_id;sensor_type;location;lat;lon;timestamp;P1;durP1;ratioP1;P2;durP2;ratioP2
41201;SDS011;26936;50.524;8.684;2022-11-15T00:00:13;17.43;;;8.30;;
41201;SDS011;26936;50.524;8.684;2022-11-15T00:02:38;14.73;;;8.55;;
41201;SDS011;26936;50.524;8.684;2022-11-15T00:05:03;13.23;;;8.60;;
41201;SDS011;26936;50.524;8.684;2022-11-15T00:07:29;13.20;;;8.60;;
41201;SDS011;26936;50.524;8.684;2022-11-15T00:09:54;15.03;;;8.17;;
41201;SDS011;26936;50.524;8.684;2022-11-15T00:12:19;14.70;;;7.37;;
41201;SDS011;26936;50.524;8.684;2022-11-15T00:14:45;14.07;;;8.33;;
41201;SDS011;26936;50.524;8.684;2022-11-15T00:17:10;15.23;;;7.67;;
41201;SDS011;26936;50.524;8.684;2022-11-15T00:19:35;12.50;;;7.50;;
41201;SDS011;26936;50.524;8.684;2022-11-15T00:22:00;11.80;;;8.10;;
41201;SDS011;26936;50.524;8.684;2022-11-15T00:24:26;14.53;;;7.20;;
41201;SDS011;26936;50.524;8.684;2022-11-15T00:26:51;11.87;;;7.07;;
41201;SDS011;26936;50.524;8.684;2022-11-15T00:29:16;11.77;;;7.37;;
41201;SDS011;26936;50.524;8.684;2022-11-15T00:31:41;12.80;;;7.63;;
41201;SDS011;26936;50.524;8.684;2022-11-15T00:34:06;12.93;;;7.60;;
41201;SDS011;26936;50.524;8.684;2022-11-15T00:36:32;14.60;;;7.60;;
41201;SDS011;26936;50.524;8.684;2022-11-15T00:38:59;12.30;;;7.00;;
41201;SDS011;26936;50.524;8.684;2022-11-15T00:41:25;11.13;;;7.10;;
41201;SDS011;26936;50.524;8.684;2022-11-15T00:43:50;10.98;;;6.80;;
41201;SDS011;26936;50.524;8.684;2022-11-15T00:46:15;12.10;;;6.83;;
41201;SDS011;26936;50.524;8.684;2022-11-15T00:48:40;12.97;;;7.73;;
41201;SDS011;26936;50.524;8.684;2022-11-15T00:51:06;11.27;;;7.50;;
41201;SDS011;26936;50.524;8.684;2022-11-15T00:53:31;13.88;;;7.20;;
41201;SDS011;26936;50.524;8.684;2022-11-15T00:55:56;14.20;;;7.70;;
41201;SDS011;26936;50.524;8.684;2022-11-15T00:58:21;14.63;;;7.43;;
41201;SDS011;26936;50.524;8.684;2022-11-15T01:00:47;10.00;;;6.80;;
41201;SDS011;26936;50.524;8.684;2022-11-15T01:03:12;10.35;;;6.75;;
41201;SDS011;26936;50.524;8.684;2022-11-15T01:05:37;10.90;;;6.27;;
41201;SDS011;26936;50.524;8.684;2022-11-15T01:08:03;10.73;;;6.72;;
41201;SDS011;26936;50.524;8.684;2022-11-15T01:10:29;11.90;;;7.22;;
41201;SDS011;26936;50.524;8.684;2022-11-15T01:12:54;10.80;;;6.70;;
41201;SDS011;26936;50.524;8.684;2022-11-15T01:15:19;14.40;;;6.87;;
41201;SDS011;26936;50.524;8.684;2022-11-15T01:17:45;13.07;;;6.90;;
41201;SDS011;26936;50.524;8.684;2022-11-15T01:20:10;11.32;;;6.75;;
41201;SDS011;26936;50.524;8.684;2022-11-15T01:22:35;11.77;;;7.07;;
41201;SDS011;26936;50.524;8.684;2022-11-15T01:25:01;11.35;;;6.90;;
41201;SDS011;26936;50.524;8.684;2022-11-15T01:27:26;10.73;;;6.85;;
41201;SDS011;26936;50.524;8.684;2022-11-15T01:29:51;14.07;;;8.57;;
41201;SDS011;26936;50.524;8.684;2022-11-15T01:32:16;11.67;;;6.87;;
41201;SDS011;26936;50.524;8.684;2022-11-15T01:34:42;12.93;;;7.13;;
41201;SDS011;26936;50.524;8.684;2022-11-15T01:37:08;10.05;;;7.18;;
41201;SDS011;26936;50.524;8.684;2022-11-15T01:39:33;15.05;;;7.40;;
41201;SDS011;26936;50.524;8.684;2022-11-15T01:41:59;15.20;;;7.70;;
41201;SDS011;26936;50.524;8.684;2022-11-15T01:46:55;12.07;;;7.45;;
41201;SDS011;26936;50.524;8.684;2022-11-15T01:49:22;12.82;;;6.95;;
41201;SDS011;26936;50.524;8.684;2022-11-15T01:51:49;12.30;;;7.05;;
41201;SDS011;26936;50.524;8.684;2022-11-15T01:54:15;14.55;;;7.18;;
41201;SDS011;26936;50.524;8.684;2022-11-15T01:56:45;11.45;;;7.00;;
41201;SDS011;26936;50.524;8.684;2022-11-15T01:59:16;11.77;;;7.10;;
41201;SDS011;26936;50.524;8.684;2022-11-15T02:01:42;10.52;;;7.05;;
41201;SDS011;26936;50.524;8.684;2022-11-15T02:04:18;11.77;;;7.00;;
41201;SDS011;26936;50.524;8.684;2022-11-15T02:06:49;10.68;;;6.85;;
41201;SDS011;26936;50.524;8.684;2022-11-15T02:09:14;12.02;;;5.72;;
41201;SDS011;26936;50.524;8.684;2022-11-15T02:11:40;13.07;;;6.55;;
41201;SDS011;26936;50.524;8.684;2022-11-15T02:14:05;8.68;;;6.10;;
41201;SDS011;26936;50.524;8.684;2022-11-15T02:32:45;10.00;;;5.63;;
41201;SDS011;26936;50.524;8.684;2022-11-15T02:40:52;7.28;;;4.95;;
41201;SDS011;26936;50.524;8.684;2022-11-15T02:43:24;10.30;;;5.30;;
41201;SDS011;26936;50.524;8.684;2022-11-15T02:46:14;9.27;;;5.70;;
41201;SDS011;26936;50.524;8.684;2022-11-15T02:49:12;9.00;;;5.35;;
41201;SDS011;26936;50.524;8.684;2022-11-15T02:51:39;10.43;;;5.75;;
41201;SDS011;26936;50.524;8.684;2022-11-15T02:54:10;7.82;;;5.00;;
41201;SDS011;26936;50.524;8.684;2022-11-15T02:56:39;9.45;;;5.63;;
41201;SDS011;26936;50.524;8.684;2022-11-15T03:04:53;9.57;;;4.95;;
41201;SDS011;26936;50.524;8.684;2022-11-15T03:07:35;9.48;;;5.07;;
41201;SDS011;26936;50.524;8.684;2022-11-15T03:10:11;7.72;;;4.63;;
41201;SDS011;26936;50.524;8.684;2022-11-15T03:15:13;11.32;;;4.55;;
41201;SDS011;26936;50.524;8.684;2022-11-15T03:20:53;6.97;;;4.10;;
41201;SDS011;26936;50.524;8.684;2022-11-15T03:23:20;7.15;;;4.53;;
41201;SDS011;26936;50.524;8.684;2022-11-15T03:25:46;7.50;;;4.32;;
41201;SDS011;26936;50.524;8.684;2022-11-15T03:28:22;7.97;;;4.35;;
41201;SDS011;26936;50.524;8.684;2022-11-15T03:30:52;7.78;;;4.47;;
41201;SDS011;26936;50.524;8.684;2022-11-15T03:33:20;5.78;;;4.05;;
41201;SDS011;26936;50.524;8.684;2022-11-15T03:35:47;7.97;;;4.32;;
41201;SDS011;26936;50.524;8.684;2022-11-15T03:38:15;6.57;;;4.10;;
41201;SDS011;26936;50.524;8.684;2022-11-15T03:43:39;7.53;;;4.05;;
41201;SDS011;26936;50.524;8.684;2022-11-15T03:46:28;7.25;;;4.30;;
41201;SDS011;26936;50.524;8.684;2022-11-15T03:49:09;6.80;;;4.32;;
41201;SDS011;26936;50.524;8.684;2022-11-15T03:51:38;6.85;;;3.97;;
41201;SDS011;26936;50.524;8.684;2022-11-15T03:54:04;8.48;;;4.70;;
41201;SDS011;26936;50.524;8.684;2022-11-15T03:56:29;9.52;;;5.07;;
41201;SDS011;26936;50.524;8.684;2022-11-15T03:58:55;9.27;;;4.45;;
41201;SDS011;26936;50.524;8.684;2022-11-15T04:01:20;7.10;;;4.20;;
41201;SDS011;26936;50.524;8.684;2022-11-15T04:03:45;10.10;;;4.57;;
41201;SDS011;26936;50.524;8.684;2022-11-15T04:06:10;8.17;;;5.00;;
41201;SDS011;26936;50.524;8.684;2022-11-15T04:08:36;8.32;;;5.00;;
41201;SDS011;26936;50.524;8.684;2022-11-15T04:11:01;8.50;;;4.63;;
41201;SDS011;26936;50.524;8.684;2022-11-15T04:13:26;6.43;;;4.18;;
41201;SDS011;26936;50.524;8.684;2022-11-15T04:15:52;7.07;;;4.60;;
41201;SDS011;26936;50.524;8.684;2022-11-15T04:18:17;9.37;;;4.50;;
41201;SDS011;26936;50.524;8.684;2022-11-15T04:20:42;8.25;;;4.72;;
41201;SDS011;26936;50.524;8.684;2022-11-15T04:23:26;8.13;;;4.90;;
41201;SDS011;26936;50.524;8.684;2022-11-15T04:26:20;7.38;;;4.93;;
41201;SDS011;26936;50.524;8.684;2022-11-15T04:28:47;10.57;;;5.40;;
41201;SDS011;26936;50.524;8.684;2022-11-15T04:31:31;9.70;;;4.97;;
41201;SDS011;26936;50.524;8.684;2022-11-15T04:33:56;7.13;;;4.60;;
41201;SDS011;26936;50.524;8.684;2022-11-15T04:36:22;6.30;;;4.40;;
41201;SDS011;26936;50.524;8.684;2022-11-15T04:39:06;9.07;;;5.05;;
41201;SDS011;26936;50.524;8.684;2022-11-15T04:41:32;8.90;;;4.72;;
41201;SDS011;26936;50.524;8.684;2022-11-15T04:43:57;9.90;;;4.88;;
41201;SDS011;26936;50.524;8.684;2022-11-15T04:46:23;9.90;;;5.03;;
41201;SDS011;26936;50.524;8.684;2022-11-15T04:48:49;8.88;;;4.80;;
41201;SDS011;26936;50.524;8.684;2022-11-15T04:51:15;8.43;;;4.90;;
41201;SDS011;26936;50.524;8.684;2022-11-15T04:53:40;10.15;;;4.88;;
41201;SDS011;26936;50.524;8.684;2022-11-15T04:56:06;7.38;;;5.10;;
41201;SDS011;26936;50.524;8.684;2022-11-15T04:58:31;6.32;;;4.63;;
41201;SDS011;26936;50.524;8.684;2022-11-15T05:00:56;9.68;;;5.03;;
41201;SDS011;26936;50.524;8.684;2022-11-15T05:03:22;6.23;;;4.40;;
41201;SDS011;26936;50.524;8.684;2022-11-15T05:06:05;7.60;;;4.20;;
41201;SDS011;26936;50.524;8.684;2022-11-15T05:08:31;9.05;;;5.40;;
41201;SDS011;26936;50.524;8.684;2022-11-15T05:10:56;11.20;;;5.05;;
41201;SDS011;26936;50.524;8.684;2022-11-15T05:13:21;7.85;;;5.07;;
41201;SDS011;26936;50.524;8.684;2022-11-15T05:15:46;8.32;;;5.20;;
41201;SDS011;26936;50.524;8.684;2022-11-15T05:18:12;7.85;;;5.28;;
41201;SDS011;26936;50.524;8.684;2022-11-15T05:20:37;10.00;;;5.70;;
41201;SDS011;26936;50.524;8.684;2022-11-15T05:23:02;8.80;;;4.63;;
41201;SDS011;26936;50.524;8.684;2022-11-15T05:25:28;7.93;;;4.70;;
41201;SDS011;26936;50.524;8.684;2022-11-15T05:27:53;8.02;;;4.82;;
41201;SDS011;26936;50.524;8.684;2022-11-15T05:30:19;7.40;;;4.95;;
41201;SDS011;26936;50.524;8.684;2022-11-15T05:32:44;11.23;;;5.50;;
41201;SDS011;26936;50.524;8.684;2022-11-15T05:35:12;13.15;;;5.38;;
41201;SDS011;26936;50.524;8.684;2022-11-15T05:37:42;9.00;;;5.97;;
41201;SDS011;26936;50.524;8.684;2022-11-15T05:40:08;10.25;;;5.72;;
41201;SDS011;26936;50.524;8.684;2022-11-15T05:42:33;9.77;;;5.47;;
41201;SDS011;26936;50.524;8.684;2022-11-15T05:44:58;9.07;;;5.47;;
41201;SDS011;26936;50.524;8.684;2022-11-15T05:47:27;10.50;;;6.07;;
41201;SDS011;26936;50.524;8.684;2022-11-15T05:49:54;10.38;;;5.50;;
41201;SDS011;26936;50.524;8.684;2022-11-15T05:52:21;12.32;;;6.35;;
41201;SDS011;26936;50.524;8.684;2022-11-15T05:54:50;13.18;;;6.05;;
41201;SDS011;26936;50.524;8.684;2022-11-15T05:57:16;12.07;;;6.05;;
41201;SDS011;26936;50.524;8.684;2022-11-15T05:59:41;9.80;;;5.88;;
41201;SDS011;26936;50.524;8.684;2022-11-15T06:02:08;10.27;;;5.80;;
41201;SDS011;26936;50.524;8.684;2022-11-15T06:04:34;11.93;;;6.75;;
41201;SDS011;26936;50.524;8.684;2022-11-15T06:07:00;13.55;;;6.40;;
41201;SDS011;26936;50.524;8.684;2022-11-15T06:09:25;11.40;;;5.53;;
41201;SDS011;26936;50.524;8.684;2022-11-15T06:11:50;10.45;;;6.03;;
41201;SDS011;26936;50.524;8.684;2022-11-15T06:14:16;11.83;;;6.30;;
41201;SDS011;26936;50.524;8.684;2022-11-15T06:16:41;11.02;;;5.28;;
41201;SDS011;26936;50.524;8.684;2022-11-15T06:19:07;9.80;;;5.43;;
41201;SDS011;26936;50.524;8.684;2022-11-15T06:21:32;9.40;;;5.47;;
41201;SDS011;26936;50.524;8.684;2022-11-15T06:23:58;10.55;;;5.85;;
41201;SDS011;26936;50.524;8.684;2022-11-15T06:26:23;9.97;;;6.00;;
41201;SDS011;26936;50.524;8.684;2022-11-15T06:28:48;9.65;;;6.00;;
41201;SDS011;26936;50.524;8.684;2022-11-15T06:31:14;10.40;;;5.70;;
41201;SDS011;26936;50.524;8.684;2022-11-15T06:33:39;10.13;;;5.32;;
41201;SDS011;26936;50.524;8.684;2022-11-15T06:36:05;10.27;;;6.13;;
41201;SDS011;26936;50.524;8.684;2022-11-15T06:38:33;11.13;;;6.70;;
41201;SDS011;26936;50.524;8.684;2022-11-15T06:41:02;13.15;;;5.60;;
41201;SDS011;26936;50.524;8.684;2022-11-15T06:43:29;9.07;;;5.95;;
41201;SDS011;26936;50.524;8.684;2022-11-15T06:45:54;8.68;;;5.30;;
41201;SDS011;26936;50.524;8.684;2022-11-15T06:48:20;10.65;;;5.13;;
41201;SDS011;26936;50.524;8.684;2022-11-15T06:50:51;11.17;;;5.30;;
41201;SDS011;26936;50.524;8.684;2022-11-15T06:53:17;12.17;;;6.10;;
41201;SDS011;26936;50.524;8.684;2022-11-15T06:55:43;9.45;;;5.80;;
41201;SDS011;26936;50.524;8.684;2022-11-15T06:58:08;9.57;;;5.60;;
41201;SDS011;26936;50.524;8.684;2022-11-15T07:00:33;10.75;;;6.22;;
41201;SDS011;26936;50.524;8.684;2022-11-15T07:02:59;10.60;;;6.35;;
41201;SDS011;26936;50.524;8.684;2022-11-15T07:05:25;11.32;;;6.63;;
41201;SDS011;26936;50.524;8.684;2022-11-15T07:07:52;10.48;;;6.80;;
41201;SDS011;26936;50.524;8.684;2022-11-15T07:10:18;11.73;;;7.20;;
41201;SDS011;26936;50.524;8.684;2022-11-15T07:12:46;10.63;;;6.18;;
41201;SDS011;26936;50.524;8.684;2022-11-15T07:15:13;12.38;;;6.13;;
41201;SDS011;26936;50.524;8.684;2022-11-15T07:17:39;9.65;;;5.65;;
41201;SDS011;26936;50.524;8.684;2022-11-15T07:20:04;10.30;;;6.37;;
41201;SDS011;26936;50.524;8.684;2022-11-15T07:22:30;10.98;;;6.28;;
41201;SDS011;26936;50.524;8.684;2022-11-15T07:24:55;11.10;;;6.33;;
41201;SDS011;26936;50.524;8.684;2022-11-15T07:27:20;9.97;;;6.23;;
41201;SDS011;26936;50.524;8.684;2022-11-15T07:29:46;10.73;;;6.85;;
41201;SDS011;26936;50.524;8.684;2022-11-15T07:32:11;12.03;;;6.60;;
41201;SDS011;26936;50.524;8.684;2022-11-15T07:34:36;10.33;;;5.97;;
41201;SDS011;26936;50.524;8.684;2022-11-15T07:37:01;12.30;;;6.03;;
41201;SDS011;26936;50.524;8.684;2022-11-15T07:39:27;13.05;;;6.30;;
41201;SDS011;26936;50.524;8.684;2022-11-15T07:41:52;9.67;;;6.00;;
41201;SDS011;26936;50.524;8.684;2022-11-15T07:44:37;9.05;;;6.07;;
41201;SDS011;26936;50.524;8.684;2022-11-15T07:47:02;11.30;;;5.40;;
41201;SDS011;26936;50.524;8.684;2022-11-15T07:49:28;11.43;;;5.80;;
41201;SDS011;26936;50.524;8.684;2022-11-15T07:51:53;8.60;;;5.80;;
41201;SDS011;26936;50.524;8.684;2022-11-15T07:54:18;8.13;;;5.10;;
41201;SDS011;26936;50.524;8.684;2022-11-15T07:56:43;10.17;;;5.60;;
41201;SDS011;26936;50.524;8.684;2022-11-15T07:59:09;8.77;;;5.57;;
41201;SDS011;26936;50.524;8.684;2022-11-15T08:01:34;11.37;;;5.83;;
41201;SDS011;26936;50.524;8.684;2022-11-15T08:03:59;8.02;;;5.90;;
41201;SDS011;26936;50.524;8.684;2022-11-15T08:06:24;8.83;;;5.37;;
41201;SDS011;26936;50.524;8.684;2022-11-15T08:08:50;10.17;;;4.70;;
41201;SDS011;26936;50.524;8.684;2022-11-15T08:11:15;7.13;;;4.53;;
41201;SDS011;26936;50.524;8.684;2022-11-15T08:13:40;11.13;;;4.60;;
41201;SDS011;26936;50.524;8.684;2022-11-15T08:16:06;7.27;;;4.53;;
41201;SDS011;26936;50.524;8.684;2022-11-15T08:18:31;9.18;;;4.78;;
41201;SDS011;26936;50.524;8.684;2022-11-15T08:21:00;8.85;;;5.10;;
41201;SDS011;26936;50.524;8.684;2022-11-15T08:23:26;8.63;;;5.13;;
41201;SDS011;26936;50.524;8.684;2022-11-15T08:25:52;8.00;;;4.25;;
41201;SDS011;26936;50.524;8.684;2022-11-15T08:28:17;9.50;;;4.97;;
41201;SDS011;26936;50.524;8.684;2022-11-15T08:30:43;8.40;;;4.82;;
41201;SDS011;26936;50.524;8.684;2022-11-15T08:33:11;7.78;;;4.97;;
41201;SDS011;26936;50.524;8.684;2022-11-15T08:35:38;8.05;;;4.78;;
41201;SDS011;26936;50.524;8.684;2022-11-15T08:38:04;8.32;;;5.07;;
41201;SDS011;26936;50.524;8.684;2022-11-15T08:40:29;10.33;;;4.57;;
41201;SDS011;26936;50.524;8.684;2022-11-15T08:42:54;8.50;;;4.25;;
41201;SDS011;26936;50.524;8.684;2022-11-15T08:45:19;11.25;;;5.22;;
41201;SDS011;26936;50.524;8.684;2022-11-15T08:47:45;8.10;;;4.30;;
41201;SDS011;26936;50.524;8.684;2022-11-15T08:50:10;6.50;;;4.70;;
41201;SDS011;26936;50.524;8.684;2022-11-15T08:52:35;11.23;;;4.78;;
41201;SDS011;26936;50.524;8.684;2022-11-15T08:55:00;7.83;;;4.97;;
41201;SDS011;26936;50.524;8.684;2022-11-15T08:57:28;7.00;;;4.77;;
41201;SDS011;26936;50.524;8.684;2022-11-15T08:59:55;9.48;;;5.40;;
41201;SDS011;26936;50.524;8.684;2022-11-15T09:02:20;8.85;;;4.88;;
41201;SDS011;26936;50.524;8.684;2022-11-15T09:04:45;6.83;;;4.97;;
41201;SDS011;26936;50.524;8.684;2022-11-15T09:07:11;6.37;;;4.37;;
41201;SDS011;26936;50.524;8.684;2022-11-15T09:09:36;8.05;;;4.90;;
41201;SDS011;26936;50.524;8.684;2022-11-15T09:12:02;8.05;;;4.70;;
41201;SDS011;26936;50.524;8.684;2022-11-15T09:14:27;7.50;;;4.50;;
41201;SDS011;26936;50.524;8.684;2022-11-15T09:16:53;8.90;;;4.93;;
41201;SDS011;26936;50.524;8.684;2022-11-15T09:19:18;8.67;;;4.87;;
41201;SDS011;26936;50.524;8.684;2022-11-15T09:21:43;9.30;;;5.10;;
41201;SDS011;26936;50.524;8.684;2022-11-15T09:24:08;10.23;;;4.73;;
41201;SDS011;26936;50.524;8.684;2022-11-15T09:26:34;10.48;;;4.97;;
41201;SDS011;26936;50.524;8.684;2022-11-15T09:28:59;9.70;;;5.47;;
41201;SDS011;26936;50.524;8.684;2022-11-15T09:31:26;10.00;;;5.28;;
41201;SDS011;26936;50.524;8.684;2022-11-15T09:33:51;8.00;;;4.60;;
41201;SDS011;26936;50.524;8.684;2022-11-15T09:36:16;7.97;;;4.85;;
41201;SDS011;26936;50.524;8.684;2022-11-15T09:38:42;8.13;;;5.00;;
41201;SDS011;26936;50.524;8.684;2022-11-15T09:43:47;10.20;;;5.45;;
41201;SDS011;26936;50.524;8.684;2022-11-15T09:46:44;10.88;;;5.70;;
41201;SDS011;26936;50.524;8.684;2022-11-15T09:49:13;10.25;;;5.60;;
41201;SDS011;26936;50.524;8.684;2022-11-15T09:51:41;11.60;;;6.05;;
41201;SDS011;26936;50.524;8.684;2022-11-15T09:56:40;8.20;;;5.93;;
41201;SDS011;26936;50.524;8.684;2022-11-15T10:04:43;11.25;;;5.40;;
41201;SDS011;26936;50.524;8.684;2022-11-15T10:07:13;9.48;;;5.85;;
41201;SDS011;26936;50.524;8.684;2022-11-15T10:12:40;9.00;;;5.15;;
41201;SDS011;26936;50.524;8.684;2022-11-15T10:15:12;12.77;;;5.90;;
41201;SDS011;26936;50.524;8.684;2022-11-15T10:20:34;10.32;;;5.55;;
41201;SDS011;26936;50.524;8.684;2022-11-15T10:23:10;8.50;;;5.50;;
41201;SDS011;26936;50.524;8.684;2022-11-15T10:25:38;10.23;;;5.10;;
41201;SDS011;26936;50.524;8.684;2022-11-15T10:30:42;10.20;;;5.43;;
41201;SDS011;26936;50.524;8.684;2022-11-15T10:33:16;10.05;;;5.57;;
41201;SDS011;26936;50.524;8.684;2022-11-15T10:41:16;8.75;;;5.80;;
41201;SDS011;26936;50.524;8.684;2022-11-15T10:43:42;10.05;;;5.63;;
41201;SDS011;26936;50.524;8.684;2022-11-15T10:46:16;9.25;;;5.40;;
41201;SDS011;26936;50.524;8.684;2022-11-15T10:48:44;8.88;;;5.03;;
41201;SDS011;26936;50.524;8.684;2022-11-15T10:51:18;10.13;;;5.95;;
41201;SDS011;26936;50.524;8.684;2022-11-15T10:53:56;9.88;;;5.60;;
41201;SDS011;26936;50.524;8.684;2022-11-15T10:56:24;11.30;;;6.30;;
41201;SDS011;26936;50.524;8.684;2022-11-15T10:58:52;11.20;;;5.90;;
41201;SDS011;26936;50.524;8.684;2022-11-15T11:01:21;8.55;;;5.55;;
41201;SDS011;26936;50.524;8.684;2022-11-15T11:04:02;8.50;;;5.53;;
41201;SDS011;26936;50.524;8.684;2022-11-15T11:06:28;7.72;;;5.03;;
41201;SDS011;26936;50.524;8.684;2022-11-15T11:08:58;8.50;;;4.93;;
41201;SDS011;26936;50.524;8.684;2022-11-15T11:11:24;9.88;;;5.38;;
41201;SDS011;26936;50.524;8.684;2022-11-15T11:14:11;10.45;;;4.30;;
41201;SDS011;26936;50.524;8.684;2022-11-15T11:16:42;8.40;;;5.13;;
41201;SDS011;26936;50.524;8.684;2022-11-15T11:33:44;7.10;;;4.45;;
41201;SDS011;26936;50.524;8.684;2022-11-15T11:36:39;7.90;;;4.97;;
41201;SDS011;26936;50.524;8.684;2022-11-15T11:42:30;10.13;;;4.88;;
41201;SDS011;26936;50.524;8.684;2022-11-15T11:47:51;9.32;;;5.43;;
41201;SDS011;26936;50.524;8.684;2022-11-15T11:50:28;8.00;;;4.93;;
41201;SDS011;26936;50.524;8.684;2022-11-15T11:52:58;8.02;;;4.70;;
41201;SDS011;26936;50.524;8.684;2022-11-15T11:55:31;12.95;;;6.43;;
41201;SDS011;26936;50.524;8.684;2022-11-15T12:00:52;8.90;;;5.95;;
41201;SDS011;26936;50.524;8.684;2022-11-15T12:06:17;8.75;;;5.50;;
41201;SDS011;26936;50.524;8.684;2022-11-15T12:08:53;10.55;;;5.93;;
41201;SDS011;26936;50.524;8.684;2022-11-15T12:13:58;9.80;;;6.10;;
41201;SDS011;26936;50.524;8.684;2022-11-15T12:16:27;11.40;;;5.97;;
41201;SDS011;26936;50.524;8.684;2022-11-15T12:18:54;7.07;;;5.10;;
41201;SDS011;26936;50.524;8.684;2022-11-15T12:24:26;8.68;;;5.25;;
41201;SDS011;26936;50.524;8.684;2022-11-15T12:32:31;9.52;;;5.85;;
41201;SDS011;26936;50.524;8.684;2022-11-15T12:35:00;10.95;;;6.28;;
41201;SDS011;26936;50.524;8.684;2022-11-15T12:42:35;11.67;;;5.63;;
41201;SDS011;26936;50.524;8.684;2022-11-15T12:56:01;10.73;;;5.80;;
41201;SDS011;26936;50.524;8.684;2022-11-15T12:58:44;11.18;;;5.38;;
41201;SDS011;26936;50.524;8.684;2022-11-15T13:11:57;7.65;;;4.90;;
41201;SDS011;26936;50.524;8.684;2022-11-15T13:17:02;9.02;;;5.43;;
41201;SDS011;26936;50.524;8.684;2022-11-15T13:19:37;10.10;;;5.82;;
41201;SDS011;26936;50.524;8.684;2022-11-15T13:22:04;11.23;;;5.50;;
41201;SDS011;26936;50.524;8.684;2022-11-15T13:24:52;8.02;;;5.00;;
41201;SDS011;26936;50.524;8.684;2022-11-15T13:27:18;7.50;;;5.20;;
41201;SDS011;26936;50.524;8.684;2022-11-15T13:29:44;9.43;;;5.50;;
41201;SDS011;26936;50.524;8.684;2022-11-15T13:32:13;9.35;;;5.35;;
41201;SDS011;26936;50.524;8.684;2022-11-15T13:34:47;9.48;;;5.60;;
41201;SDS011;26936;50.524;8.684;2022-11-15T13:39:47;8.63;;;5.13;;
41201;SDS011;26936;50.524;8.684;2022-11-15T13:42:17;8.48;;;4.95;;
41201;SDS011;26936;50.524;8.684;2022-11-15T13:44:57;8.52;;;4.60;;
41201;SDS011;26936;50.524;8.684;2022-11-15T13:47:27;6.40;;;4.45;;
41201;SDS011;26936;50.524;8.684;2022-11-15T13:49:53;7.25;;;4.55;;
41201;SDS011;26936;50.524;8.684;2022-11-15T13:52:22;9.73;;;4.95;;
41201;SDS011;26936;50.524;8.684;2022-11-15T13:57:21;9.70;;;4.65;;
41201;SDS011;26936;50.524;8.684;2022-11-15T14:02:16;8.30;;;4.77;;
41201;SDS011;26936;50.524;8.684;2022-11-15T14:04:47;7.13;;;4.72;;
41201;SDS011;26936;50.524;8.684;2022-11-15T14:07:16;8.25;;;4.70;;
41201;SDS011;26936;50.524;8.684;2022-11-15T14:09:44;7.90;;;4.75;;
41201;SDS011;26936;50.524;8.684;2022-11-15T14:12:22;9.15;;;4.72;;
41201;SDS011;26936;50.524;8.684;2022-11-15T14:14:50;7.55;;;4.50;;
41201;SDS011;26936;50.524;8.684;2022-11-15T14:17:32;8.80;;;5.03;;
41201;SDS011;26936;50.524;8.684;2022-11-15T14:20:00;10.48;;;5.20;;
41201;SDS011;26936;50.524;8.684;2022-11-15T14:22:29;7.00;;;4.53;;
41201;SDS011;26936;50.524;8.684;2022-11-15T14:25:15;9.68;;;5.35;;
41201;SDS011;26936;50.524;8.684;2022-11-15T14:27:42;7.25;;;4.70;;
41201;SDS011;26936;50.524;8.684;2022-11-15T14:30:17;11.20;;;5.22;;
41201;SDS011;26936;50.524;8.684;2022-11-15T14:35:16;7.82;;;4.28;;
41201;SDS011;26936;50.524;8.684;2022-11-15T14:37:43;8.45;;;4.72;;
41201;SDS011;26936;50.524;8.684;2022-11-15T14:40:11;6.97;;;4.60;;
41201;SDS011;26936;50.524;8.684;2022-11-15T14:42:38;9.10;;;4.95;;
41201;SDS011;26936;50.524;8.684;2022-11-15T14:45:09;7.27;;;4.13;;
41201;SDS011;26936;50.524;8.684;2022-11-15T14:47:37;7.82;;;4.28;;
41201;SDS011;26936;50.524;8.684;2022-11-15T14:50:03;8.47;;;4.63;;
41201;SDS011;26936;50.524;8.684;2022-11-15T14:52:29;7.55;;;4.07;;
41201;SDS011;26936;50.524;8.684;2022-11-15T14:54:59;7.60;;;4.22;;
41201;SDS011;26936;50.524;8.684;2022-11-15T14:57:27;7.03;;;4.05;;
41201;SDS011;26936;50.524;8.684;2022-11-15T14:59:52;8.68;;;4.30;;
41201;SDS011;26936;50.524;8.684;2022-11-15T15:02:18;6.18;;;4.20;;
41201;SDS011;26936;50.524;8.684;2022-11-15T15:04:46;7.07;;;4.13;;
41201;SDS011;26936;50.524;8.684;2022-11-15T15:07:11;8.13;;;4.50;;
41201;SDS011;26936;50.524;8.684;2022-11-15T15:09:37;13.85;;;4.53;;
41201;SDS011;26936;50.524;8.684;2022-11-15T15:12:02;6.28;;;3.72;;
41201;SDS011;26936;50.524;8.684;2022-11-15T15:14:28;8.07;;;4.20;;
41201;SDS011;26936;50.524;8.684;2022-11-15T15:16:53;6.37;;;3.93;;
41201;SDS011;26936;50.524;8.684;2022-11-15T15:19:19;6.70;;;3.95;;
41201;SDS011;26936;50.524;8.684;2022-11-15T15:21:44;6.27;;;4.33;;
41201;SDS011;26936;50.524;8.684;2022-11-15T15:24:13;6.40;;;3.93;;
41201;SDS011;26936;50.524;8.684;2022-11-15T15:26:39;5.65;;;3.85;;
41201;SDS011;26936;50.524;8.684;2022-11-15T15:29:05;7.63;;;3.97;;
41201;SDS011;26936;50.524;8.684;2022-11-15T15:31:31;5.35;;;3.53;;
41201;SDS011;26936;50.524;8.684;2022-11-15T15:33:57;5.55;;;3.63;;
41201;SDS011;26936;50.524;8.684;2022-11-15T15:36:23;6.90;;;3.60;;
41201;SDS011;26936;50.524;8.684;2022-11-15T15:38:48;6.00;;;3.83;;
41201;SDS011;26936;50.524;8.684;2022-11-15T15:41:14;6.13;;;3.63;;
41201;SDS011;26936;50.524;8.684;2022-11-15T15:43:40;6.60;;;3.83;;
41201;SDS011;26936;50.524;8.684;2022-11-15T15:46:16;7.00;;;3.60;;
41201;SDS011;26936;50.524;8.684;2022-11-15T15:48:42;7.97;;;3.67;;
41201;SDS011;26936;50.524;8.684;2022-11-15T15:51:08;7.32;;;3.58;;
41201;SDS011;26936;50.524;8.684;2022-11-15T15:53:33;7.82;;;3.60;;
41201;SDS011;26936;50.524;8.684;2022-11-15T15:55:59;7.32;;;3.38;;
41201;SDS011;26936;50.524;8.684;2022-11-15T15:58:24;6.80;;;3.35;;
41201;SDS011;26936;50.524;8.684;2022-11-15T16:00:49;5.65;;;3.38;;
41201;SDS011;26936;50.524;8.684;2022-11-15T16:03:15;6.45;;;3.60;;
41201;SDS011;26936;50.524;8.684;2022-11-15T16:05:40;10.63;;;4.63;;
41201;SDS011;26936;50.524;8.684;2022-11-15T16:08:05;6.55;;;3.60;;
41201;SDS011;26936;50.524;8.684;2022-11-15T16:10:34;4.88;;;3.28;;
41201;SDS011;26936;50.524;8.684;2022-11-15T16:13:01;4.80;;;3.10;;
41201;SDS011;26936;50.524;8.684;2022-11-15T16:15:28;4.97;;;3.20;;
41201;SDS011;26936;50.524;8.684;2022-11-15T16:17:56;5.72;;;3.47;;
41201;SDS011;26936;50.524;8.684;2022-11-15T16:20:24;5.97;;;3.38;;
41201;SDS011;26936;50.524;8.684;2022-11-15T16:22:56;10.32;;;3.50;;
41201;SDS011;26936;50.524;8.684;2022-11-15T16:25:21;4.47;;;3.10;;
41201;SDS011;26936;50.524;8.684;2022-11-15T16:27:46;5.47;;;3.22;;
41201;SDS011;26936;50.524;8.684;2022-11-15T16:30:16;5.32;;;3.22;;
41201;SDS011;26936;50.524;8.684;2022-11-15T16:32:43;6.93;;;3.58;;
41201;SDS011;26936;50.524;8.684;2022-11-15T16:35:12;8.95;;;3.63;;
41201;SDS011;26936;50.524;8.684;2022-11-15T16:37:41;7.45;;;3.55;;
41201;SDS011;26936;50.524;8.684;2022-11-15T16:43:03;4.35;;;3.30;;
41201;SDS011;26936;50.524;8.684;2022-11-15T16:45:30;5.15;;;3.00;;
41201;SDS011;26936;50.524;8.684;2022-11-15T16:47:59;5.93;;;3.42;;
41201;SDS011;26936;50.524;8.684;2022-11-15T16:50:25;9.15;;;3.50;;
41201;SDS011;26936;50.524;8.684;2022-11-15T16:52:53;7.00;;;3.55;;
41201;SDS011;26936;50.524;8.684;2022-11-15T16:55:21;6.07;;;3.25;;
41201;SDS011;26936;50.524;8.684;2022-11-15T16:57:47;6.10;;;3.70;;
41201;SDS011;26936;50.524;8.684;2022-11-15T17:00:14;11.20;;;5.60;;
41201;SDS011;26936;50.524;8.684;2022-11-15T17:02:48;5.50;;;3.20;;
41201;SDS011;26936;50.524;8.684;2022-11-15T17:05:15;4.85;;;3.47;;
41201;SDS011;26936;50.524;8.684;2022-11-15T17:07:42;5.85;;;3.38;;
41201;SDS011;26936;50.524;8.684;2022-11-15T17:10:08;5.75;;;2.80;;